sensor_id;sensor_type;location;lat;lon;timestamp;pressure;altitude;pressure_sealevel;temperature;humidity
67517;BME280;54359;59.124;37.910;2023-03-03T00:02:09;97852.56;;;-2.96;76.90
67517;BME280;54359;59.124;37.910;2023-03-03T00:04:35;97862.84;;;-2.89;77.05
67517;BME280;54359;59.124;37.910;2023-03-03T00:07:01;97867.22;;;-2.83;77.07
67517;BME280;54359;59.124;37.910;2023-03-03T00:09:26;97863.91;;;-2.80;77.73
67517;BME280;54359;59.124;37.910;2023-03-03T00:11:55;97860.69;;;-2.76;76.97
67517;BME280;54359;59.124;37.910;2023-03-03T00:14:27;97860.75;;;-2.75;76.91
67517;BME280;54359;59.124;37.910;2023-03-03T00:16:54;97844.75;;;-2.77;76.85
67517;BME280;54359;59.124;37.910;2023-03-03T00:19:21;97848.16;;;-2.75;76.93
67517;BME280;54359;59.124;37.910;2023-03-03T00:21:57;97850.75;;;-2.72;77.60
67517;BME280;54359;59.124;37.910;2023-03-03T00:24:36;97839.84;;;-2.72;77.79
67517;BME280;54359;59.124;37.910;2023-03-03T00:27:16;97835.53;;;-2.76;76.97
67517;BME280;54359;59.124;37.910;2023-03-03T00:29:55;97837.41;;;-2.69;77.09
67517;BME280;54359;59.124;37.910;2023-03-03T00:32:45;97838.34;;;-2.66;77.70
67517;BME280;54359;59.124;37.910;2023-03-03T00:35:29;97840.19;;;-2.60;77.59
67517;BME280;54359;59.124;37.910;2023-03-03T00:38:00;97818.97;;;-2.70;77.51
67517;BME280;54359;59.124;37.910;2023-03-03T00:40:32;97835.22;;;-2.58;77.78
67517;BME280;54359;59.124;37.910;2023-03-03T00:43:01;97843.78;;;-2.52;77.43
67517;BME280;54359;59.124;37.910;2023-03-03T00:45:45;97843.00;;;-2.49;76.93
67517;BME280;54359;59.124;37.910;2023-03-03T00:48:45;97837.16;;;-2.48;77.34
67517;BME280;54359;59.124;37.910;2023-03-03T00:51:29;97842.19;;;-2.48;76.62
67517;BME280;54359;59.124;37.910;2023-03-03T00:53:56;97837.13;;;-2.50;77.58
67517;BME280;54359;59.124;37.910;2023-03-03T00:56:23;97838.78;;;-2.50;77.88
67517;BME280;54359;59.124;37.910;2023-03-03T00:58:50;97845.50;;;-2.49;77.15
67517;BME280;54359;59.124;37.910;2023-03-03T01:01:18;97833.72;;;-2.52;77.35
67517;BME280;54359;59.124;37.910;2023-03-03T01:03:47;97824.44;;;-2.53;77.69
67517;BME280;54359;59.124;37.910;2023-03-03T01:06:13;97804.81;;;-2.66;77.43
67517;BME280;54359;59.124;37.910;2023-03-03T01:08:39;97821.03;;;-2.56;77.83
67517;BME280;54359;59.124;37.910;2023-03-03T01:11:12;97837.97;;;-2.49;77.51
67517;BME280;54359;59.124;37.910;2023-03-03T01:13:41;97819.13;;;-2.64;77.23
67517;BME280;54359;59.124;37.910;2023-03-03T01:16:09;97826.94;;;-2.54;77.02
67517;BME280;54359;59.124;37.910;2023-03-03T01:18:35;97828.75;;;-2.49;77.51
67517;BME280;54359;59.124;37.910;2023-03-03T01:21:02;97825.44;;;-2.48;77.46
67517;BME280;54359;59.124;37.910;2023-03-03T01:23:28;97828.78;;;-2.47;77.59
67517;BME280;54359;59.124;37.910;2023-03-03T01:25:53;97826.28;;;-2.47;77.44
67517;BME280;54359;59.124;37.910;2023-03-03T01:28:19;97831.41;;;-2.44;77.47
67517;BME280;54359;59.124;37.910;2023-03-03T01:30:45;97831.44;;;-2.43;77.70
67517;BME280;54359;59.124;37.910;2023-03-03T01:33:11;97817.06;;;-2.47;77.15
67517;BME280;54359;59.124;37.910;2023-03-03T01:35:42;97809.72;;;-2.39;77.40
67517;BME280;54359;59.124;37.910;2023-03-03T01:38:08;97819.91;;;-2.34;77.43
67517;BME280;54359;59.124;37.910;2023-03-03T01:40:34;97803.84;;;-2.39;77.66
67517;BME280;54359;59.124;37.910;2023-03-03T01:43:02;97804.81;;;-2.34;77.46
67517;BME280;54359;59.124;37.910;2023-03-03T01:45:30;97815.13;;;-2.25;77.94
67517;BME280;54359;59.124;37.910;2023-03-03T01:48:32;97811.03;;;-2.21;77.76
67517;BME280;54359;59.124;37.910;2023-03-03T01:51:05;97811.03;;;-2.21;77.55
67517;BME280;54359;59.124;37.910;2023-03-03T01:53:49;97812.84;;;-2.16;77.88
67517;BME280;54359;59.124;37.910;2023-03-03T01:56:16;97811.91;;;-2.19;77.66
67517;BME280;54359;59.124;37.910;2023-03-03T01:58:50;97810.34;;;-2.14;77.44
67517;BME280;54359;59.124;37.910;2023-03-03T02:01:25;97808.69;;;-2.15;77.55
67517;BME280;54359;59.124;37.910;2023-03-03T02:03:52;97813.03;;;-2.08;77.24
67517;BME280;54359;59.124;37.910;2023-03-03T02:06:24;97804.44;;;-2.16;77.67
67517;BME280;54359;59.124;37.910;2023-03-03T02:09:04;97818.91;;;-2.08;77.38
67517;BME280;54359;59.124;37.910;2023-03-03T02:11:35;97807.16;;;-2.09;77.40
67517;BME280;54359;59.124;37.910;2023-03-03T02:14:01;97814.56;;;-2.15;77.39
67517;BME280;54359;59.124;37.910;2023-03-03T02:16:28;97805.38;;;-2.13;77.11
67517;BME280;54359;59.124;37.910;2023-03-03T02:18:54;97807.00;;;-2.15;78.06
67517;BME280;54359;59.124;37.910;2023-03-03T02:21:22;97801.81;;;-2.21;77.06
67517;BME280;54359;59.124;37.910;2023-03-03T02:23:54;97811.03;;;-2.20;77.05
67517;BME280;54359;59.124;37.910;2023-03-03T02:26:26;97811.75;;;-2.26;77.22
67517;BME280;54359;59.124;37.910;2023-03-03T02:28:57;97808.34;;;-2.28;76.87
67517;BME280;54359;59.124;37.910;2023-03-03T02:31:26;97795.63;;;-2.34;77.17
67517;BME280;54359;59.124;37.910;2023-03-03T02:33:53;97808.25;;;-2.31;77.99
67517;BME280;54359;59.124;37.910;2023-03-03T02:36:23;97807.47;;;-2.30;77.71
67517;BME280;54359;59.124;37.910;2023-03-03T02:44:25;97811.78;;;-2.24;77.69
67517;BME280;54359;59.124;37.910;2023-03-03T02:46:53;97800.03;;;-2.25;77.62
67517;BME280;54359;59.124;37.910;2023-03-03T02:49:22;97798.13;;;-2.34;77.82
67517;BME280;54359;59.124;37.910;2023-03-03T02:51:49;97801.75;;;-2.23;77.24
67517;BME280;54359;59.124;37.910;2023-03-03T02:54:17;97795.03;;;-2.24;77.50
67517;BME280;54359;59.124;37.910;2023-03-03T02:56:43;97810.22;;;-2.20;77.44
67517;BME280;54359;59.124;37.910;2023-03-03T02:59:09;97802.69;;;-2.19;77.49
67517;BME280;54359;59.124;37.910;2023-03-03T03:01:41;97803.59;;;-2.17;77.51
67517;BME280;54359;59.124;37.910;2023-03-03T03:04:16;97793.56;;;-2.15;77.65
67517;BME280;54359;59.124;37.910;2023-03-03T03:06:45;97788.66;;;-2.11;77.29
67517;BME280;54359;59.124;37.910;2023-03-03T03:09:13;97787.06;;;-2.07;78.17
67517;BME280;54359;59.124;37.910;2023-03-03T03:11:40;97791.38;;;-2.02;77.83
67517;BME280;54359;59.124;37.910;2023-03-03T03:14:08;97771.31;;;-1.98;77.67
67517;BME280;54359;59.124;37.910;2023-03-03T03:16:34;97773.09;;;-1.94;77.57
67517;BME280;54359;59.124;37.910;2023-03-03T03:19:01;97783.38;;;-1.87;77.81
67517;BME280;54359;59.124;37.910;2023-03-03T03:21:28;97770.72;;;-1.88;77.65
67517;BME280;54359;59.124;37.910;2023-03-03T03:23:54;97784.31;;;-1.82;77.44
67517;BME280;54359;59.124;37.910;2023-03-03T03:26:21;97769.84;;;-1.90;77.87
67517;BME280;54359;59.124;37.910;2023-03-03T03:28:49;97784.25;;;-1.83;77.56
67517;BME280;54359;59.124;37.910;2023-03-03T03:31:17;97787.66;;;-1.81;77.40
67517;BME280;54359;59.124;37.910;2023-03-03T03:33:43;97786.91;;;-1.78;77.29
67517;BME280;54359;59.124;37.910;2023-03-03T03:36:10;97787.81;;;-1.75;78.13
67517;BME280;54359;59.124;37.910;2023-03-03T03:38:37;97783.53;;;-1.79;77.91
67517;BME280;54359;59.124;37.910;2023-03-03T03:41:06;97780.91;;;-1.84;77.86
67517;BME280;54359;59.124;37.910;2023-03-03T03:43:33;97776.84;;;-1.78;77.84
67517;BME280;54359;59.124;37.910;2023-03-03T03:46:00;97782.63;;;-1.81;77.46
67517;BME280;54359;59.124;37.910;2023-03-03T03:48:26;97787.00;;;-1.74;77.59
67517;BME280;54359;59.124;37.910;2023-03-03T03:50:52;97786.97;;;-1.75;78.08
67517;BME280;54359;59.124;37.910;2023-03-03T03:53:19;97787.00;;;-1.74;77.45
67517;BME280;54359;59.124;37.910;2023-03-03T03:55:46;97787.91;;;-1.72;77.69
67517;BME280;54359;59.124;37.910;2023-03-03T03:58:16;97784.59;;;-1.69;78.07
67517;BME280;54359;59.124;37.910;2023-03-03T04:00:47;97778.69;;;-1.71;77.89
67517;BME280;54359;59.124;37.910;2023-03-03T04:03:14;97771.91;;;-1.74;77.72
67517;BME280;54359;59.124;37.910;2023-03-03T04:05:42;97786.31;;;-1.68;77.63
67517;BME280;54359;59.124;37.910;2023-03-03T04:08:10;97786.38;;;-1.65;77.73
67517;BME280;54359;59.124;37.910;2023-03-03T04:10:37;97783.00;;;-1.66;77.87
67517;BME280;54359;59.124;37.910;2023-03-03T04:13:04;97796.38;;;-1.68;77.79
67517;BME280;54359;59.124;37.910;2023-03-03T04:15:31;97786.31;;;-1.68;77.53
67517;BME280;54359;59.124;37.910;2023-03-03T04:17:58;97786.31;;;-1.67;77.82
67517;BME280;54359;59.124;37.910;2023-03-03T04:20:25;97780.41;;;-1.69;78.09
67517;BME280;54359;59.124;37.910;2023-03-03T04:22:52;97789.72;;;-1.66;77.98
67517;BME280;54359;59.124;37.910;2023-03-03T04:25:19;97781.28;;;-1.67;77.87
67517;BME280;54359;59.124;37.910;2023-03-03T04:27:46;97774.47;;;-1.72;77.90
67517;BME280;54359;59.124;37.910;2023-03-03T04:30:15;97789.78;;;-1.63;78.16
67517;BME280;54359;59.124;37.910;2023-03-03T04:32:43;97790.72;;;-1.59;77.79
67517;BME280;54359;59.124;37.910;2023-03-03T04:35:11;97792.44;;;-1.57;78.03
67517;BME280;54359;59.124;37.910;2023-03-03T04:37:40;97790.59;;;-1.64;78.34
67517;BME280;54359;59.124;37.910;2023-03-03T04:40:07;97787.25;;;-1.63;77.92
67517;BME280;54359;59.124;37.910;2023-03-03T04:42:34;97799.09;;;-1.59;77.46
67517;BME280;54359;59.124;37.910;2023-03-03T04:45:02;97794.28;;;-1.50;78.09
67517;BME280;54359;59.124;37.910;2023-03-03T04:47:30;97806.00;;;-1.50;78.30
67517;BME280;54359;59.124;37.910;2023-03-03T04:49:57;97790.91;;;-1.50;78.12
67517;BME280;54359;59.124;37.910;2023-03-03T04:52:23;97791.00;;;-1.47;77.69
67517;BME280;54359;59.124;37.910;2023-03-03T04:54:48;97791.97;;;-1.40;78.17
67517;BME280;54359;59.124;37.910;2023-03-03T04:57:15;97805.44;;;-1.38;77.67
67517;BME280;54359;59.124;37.910;2023-03-03T04:59:40;97790.28;;;-1.40;77.92
67517;BME280;54359;59.124;37.910;2023-03-03T05:02:06;97808.91;;;-1.35;77.55
67517;BME280;54359;59.124;37.910;2023-03-03T05:04:32;97792.06;;;-1.36;77.82
67517;BME280;54359;59.124;37.910;2023-03-03T05:06:58;97803.06;;;-1.32;77.80
67517;BME280;54359;59.124;37.910;2023-03-03T05:09:24;97791.22;;;-1.36;77.94
67517;BME280;54359;59.124;37.910;2023-03-03T05:11:50;97795.44;;;-1.35;77.53
67517;BME280;54359;59.124;37.910;2023-03-03T05:14:16;97792.72;;;-1.45;77.86
67517;BME280;54359;59.124;37.910;2023-03-03T05:16:41;97808.94;;;-1.33;77.90
67517;BME280;54359;59.124;37.910;2023-03-03T05:19:07;97803.91;;;-1.32;77.62
67517;BME280;54359;59.124;37.910;2023-03-03T05:21:33;97798.94;;;-1.29;78.18
67517;BME280;54359;59.124;37.910;2023-03-03T05:24:00;97795.59;;;-1.28;78.07
67517;BME280;54359;59.124;37.910;2023-03-03T05:26:26;97788.03;;;-1.28;77.77
67517;BME280;54359;59.124;37.910;2023-03-03T05:28:51;97822.81;;;-1.13;78.15
67517;BME280;54359;59.124;37.910;2023-03-03T05:31:17;97816.19;;;-1.08;77.93
67517;BME280;54359;59.124;37.910;2023-03-03T05:33:43;97795.25;;;-1.05;78.03
67517;BME280;54359;59.124;37.910;2023-03-03T05:36:08;97800.31;;;-1.04;77.71
67517;BME280;54359;59.124;37.910;2023-03-03T05:38:34;97806.25;;;-1.02;77.49
67517;BME280;54359;59.124;37.910;2023-03-03T05:41:00;97825.44;;;-1.08;77.97
67517;BME280;54359;59.124;37.910;2023-03-03T05:43:26;97805.19;;;-1.13;77.73
67517;BME280;54359;59.124;37.910;2023-03-03T05:45:55;97816.16;;;-1.09;77.78
67517;BME280;54359;59.124;37.910;2023-03-03T05:48:21;97819.44;;;-1.13;77.76
67517;BME280;54359;59.124;37.910;2023-03-03T05:50:47;97804.31;;;-1.15;77.74
67517;BME280;54359;59.124;37.910;2023-03-03T05:53:13;97821.06;;;-1.17;77.73
67517;BME280;54359;59.124;37.910;2023-03-03T05:55:39;97809.13;;;-1.24;77.63
67517;BME280;54359;59.124;37.910;2023-03-03T05:58:05;97812.41;;;-1.28;77.56
67517;BME280;54359;59.124;37.910;2023-03-03T06:00:31;97810.63;;;-1.32;77.62
67517;BME280;54359;59.124;37.910;2023-03-03T06:02:57;97797.75;;;-1.45;77.63
67517;BME280;54359;59.124;37.910;2023-03-03T06:05:23;97806.94;;;-1.47;77.59
67517;BME280;54359;59.124;37.910;2023-03-03T06:07:50;97810.44;;;-1.40;77.86
67517;BME280;54359;59.124;37.910;2023-03-03T06:10:16;97818.03;;;-1.38;77.69
67517;BME280;54359;59.124;37.910;2023-03-03T06:12:46;97810.53;;;-1.37;77.62
67517;BME280;54359;59.124;37.910;2023-03-03T06:15:12;97817.38;;;-1.31;77.61
67517;BME280;54359;59.124;37.910;2023-03-03T06:17:39;97816.56;;;-1.30;77.88
67517;BME280;54359;59.124;37.910;2023-03-03T06:20:05;97820.84;;;-1.26;77.85
67517;BME280;54359;59.124;37.910;2023-03-03T06:22:31;97816.66;;;-1.26;77.83
67517;BME280;54359;59.124;37.910;2023-03-03T06:24:57;97817.53;;;-1.25;77.85
67517;BME280;54359;59.124;37.910;2023-03-03T06:27:25;97820.84;;;-1.26;77.99
67517;BME280;54359;59.124;37.910;2023-03-03T06:29:51;97831.91;;;-1.21;78.04
67517;BME280;54359;59.124;37.910;2023-03-03T06:32:17;97812.63;;;-1.17;77.65
67517;BME280;54359;59.124;37.910;2023-03-03T06:34:42;97813.63;;;-1.09;77.83
67517;BME280;54359;59.124;37.910;2023-03-03T06:37:09;97801.78;;;-1.15;77.99
67517;BME280;54359;59.124;37.910;2023-03-03T06:39:35;97812.00;;;-1.09;77.98
67517;BME280;54359;59.124;37.910;2023-03-03T06:42:01;97802.03;;;-1.01;77.86
67517;BME280;54359;59.124;37.910;2023-03-03T06:44:26;97835.13;;;-0.87;77.70
67517;BME280;54359;59.124;37.910;2023-03-03T06:46:52;97812.47;;;-0.86;77.62
67517;BME280;54359;59.124;37.910;2023-03-03T06:49:18;97806.81;;;-0.74;77.64
67517;BME280;54359;59.124;37.910;2023-03-03T06:51:44;97808.56;;;-0.71;77.73
67517;BME280;54359;59.124;37.910;2023-03-03T06:54:16;97822.31;;;-0.55;77.61
67517;BME280;54359;59.124;37.910;2023-03-03T06:56:44;97812.28;;;-0.52;77.53
67517;BME280;54359;59.124;37.910;2023-03-03T06:59:16;97813.97;;;-0.53;77.92
67517;BME280;54359;59.124;37.910;2023-03-03T07:01:45;97806.53;;;-0.45;77.59
67517;BME280;54359;59.124;37.910;2023-03-03T07:04:27;97798.16;;;-0.43;77.40
67517;BME280;54359;59.124;37.910;2023-03-03T07:06:57;97807.53;;;-0.35;77.21
67517;BME280;54359;59.124;37.910;2023-03-03T07:09:25;97810.91;;;-0.36;77.18
67517;BME280;54359;59.124;37.910;2023-03-03T07:12:17;97806.66;;;-0.39;77.38
67517;BME280;54359;59.124;37.910;2023-03-03T07:14:46;97811.66;;;-0.41;77.19
67517;BME280;54359;59.124;37.910;2023-03-03T07:17:18;97808.34;;;-0.38;77.58
67517;BME280;54359;59.124;37.910;2023-03-03T07:19:46;97800.81;;;-0.36;77.45
67517;BME280;54359;59.124;37.910;2023-03-03T07:24:39;97801.56;;;-0.41;77.23
67517;BME280;54359;59.124;37.910;2023-03-03T07:29:36;97796.06;;;-0.65;77.01
67517;BME280;54359;59.124;37.910;2023-03-03T07:35:00;97818.03;;;-0.58;77.29
67517;BME280;54359;59.124;37.910;2023-03-03T07:37:35;97808.00;;;-0.56;77.27
67517;BME280;54359;59.124;37.910;2023-03-03T07:43:12;97810.94;;;-0.33;77.58
67517;BME280;54359;59.124;37.910;2023-03-03T07:45:42;97812.81;;;-0.23;77.45
67517;BME280;54359;59.124;37.910;2023-03-03T07:48:28;97813.91;;;-0.10;77.04
67517;BME280;54359;59.124;37.910;2023-03-03T07:50:57;97811.44;;;-0.06;76.56
67517;BME280;54359;59.124;37.910;2023-03-03T07:53:33;97820.78;;;-0.02;76.96
67517;BME280;54359;59.124;37.910;2023-03-03T07:56:01;97808.16;;;-0.02;76.91
67517;BME280;54359;59.124;37.910;2023-03-03T07:58:37;97810.88;;;0.11;76.78
67517;BME280;54359;59.124;37.910;2023-03-03T08:01:30;97819.47;;;0.21;76.97
67517;BME280;54359;59.124;37.910;2023-03-03T08:04:00;97808.59;;;0.26;77.20
67517;BME280;54359;59.124;37.910;2023-03-03T08:09:23;97815.44;;;0.32;76.56
67517;BME280;54359;59.124;37.910;2023-03-03T08:14:36;97818.66;;;0.23;76.80
67517;BME280;54359;59.124;37.910;2023-03-03T08:17:20;97828.81;;;0.25;76.67
67517;BME280;54359;59.124;37.910;2023-03-03T08:19:51;97819.47;;;0.21;76.84
67517;BME280;54359;59.124;37.910;2023-03-03T08:22:22;97831.22;;;0.20;76.85
67517;BME280;54359;59.124;37.910;2023-03-03T08:24:49;97819.56;;;0.27;77.01
67517;BME280;54359;59.124;37.910;2023-03-03T08:27:16;97821.44;;;0.40;77.21
67517;BME280;54359;59.124;37.910;2023-03-03T08:29:41;97826.84;;;0.62;77.24
67517;BME280;54359;59.124;37.910;2023-03-03T08:32:08;97835.53;;;0.79;77.20
67517;BME280;54359;59.124;37.910;2023-03-03T08:34:34;97830.66;;;0.93;77.02
67517;BME280;54359;59.124;37.910;2023-03-03T08:37:00;97833.22;;;0.96;76.32
67517;BME280;54359;59.124;37.910;2023-03-03T08:39:25;97839.22;;;1.04;76.49
67517;BME280;54359;59.124;37.910;2023-03-03T08:41:51;97844.22;;;0.96;76.77
67517;BME280;54359;59.124;37.910;2023-03-03T08:44:18;97825.72;;;1.00;76.49
67517;BME280;54359;59.124;37.910;2023-03-03T08:46:45;97834.13;;;0.99;76.91
67517;BME280;54359;59.124;37.910;2023-03-03T08:49:10;97819.84;;;1.03;76.46
67517;BME280;54359;59.124;37.910;2023-03-03T08:51:36;97822.38;;;1.03;76.63
67517;BME280;54359;59.124;37.910;2023-03-03T08:54:02;97808.78;;;0.98;76.34
67517;BME280;54359;59.124;37.910;2023-03-03T08:56:28;97813.16;;;1.07;76.47
67517;BME280;54359;59.124;37.910;2023-03-03T08:58:53;97824.22;;;1.15;76.06
67517;BME280;54359;59.124;37.910;2023-03-03T09:01:19;97819.00;;;1.04;76.09
67517;BME280;54359;59.124;37.910;2023-03-03T09:03:45;97825.84;;;1.11;76.42
67517;BME280;54359;59.124;37.910;2023-03-03T09:06:10;97832.59;;;1.12;75.96
67517;BME280;54359;59.124;37.910;2023-03-03T09:08:36;97830.84;;;1.07;76.12
67517;BME280;54359;59.124;37.910;2023-03-03T09:11:10;97829.19;;;1.09;76.52
67517;BME280;54359;59.124;37.910;2023-03-03T09:13:37;97813.47;;;1.34;77.43
67517;BME280;54359;59.124;37.910;2023-03-03T09:16:13;97824.81;;;1.67;76.73
67517;BME280;54359;59.124;37.910;2023-03-03T09:18:40;97834.25;;;1.80;76.82
67517;BME280;54359;59.124;37.910;2023-03-03T09:21:22;97819.06;;;1.80;76.59
67517;BME280;54359;59.124;37.910;2023-03-03T09:23:52;97834.31;;;1.87;76.25
67517;BME280;54359;59.124;37.910;2023-03-03T09:26:45;97829.31;;;1.91;76.46
67517;BME280;54359;59.124;37.910;2023-03-03T09:29:18;97835.31;;;2.04;76.41
67517;BME280;54359;59.124;37.910;2023-03-03T09:32:07;97830.34;;;2.12;76.77
67517;BME280;54359;59.124;37.910;2023-03-03T09:34:40;97831.09;;;2.03;76.44
67517;BME280;54359;59.124;37.910;2023-03-03T09:39:43;97840.22;;;1.86;76.22
67517;BME280;54359;59.124;37.910;2023-03-03T10:12:34;97842.16;;;1.35;76.24
67517;BME280;54359;59.124;37.910;2023-03-03T10:17:55;97838.72;;;1.28;76.53
67517;BME280;54359;59.124;37.910;2023-03-03T10:26:20;97847.00;;;1.15;76.72
67517;BME280;54359;59.124;37.910;2023-03-03T10:43:34;97859.72;;;0.62;76.44
67517;BME280;54359;59.124;37.910;2023-03-03T10:51:58;97856.91;;;1.01;77.02
67517;BME280;54359;59.124;37.910;2023-03-03T11:07:51;97873.16;;;1.17;76.06
67517;BME280;54359;59.124;37.910;2023-03-03T11:13:50;97853.09;;;1.29;76.53
67517;BME280;54359;59.124;37.910;2023-03-03T11:16:39;97832.84;;;1.32;76.45
67517;BME280;54359;59.124;37.910;2023-03-03T11:19:36;97845.78;;;1.54;76.99
67517;BME280;54359;59.124;37.910;2023-03-03T11:36:26;97867.09;;;1.73;75.95
67517;BME280;54359;59.124;37.910;2023-03-03T11:41:40;97850.13;;;1.64;76.17
67517;BME280;54359;59.124;37.910;2023-03-03T11:44:21;97846.69;;;1.59;76.24
67517;BME280;54359;59.124;37.910;2023-03-03T11:46:58;97870.34;;;1.61;75.94
67517;BME280;54359;59.124;37.910;2023-03-03T11:49:38;97858.44;;;1.55;76.16
67517;BME280;54359;59.124;37.910;2023-03-03T11:57:44;97880.28;;;1.47;75.98
67517;BME280;54359;59.124;37.910;2023-03-03T12:00:36;97871.91;;;1.51;76.28
67517;BME280;54359;59.124;37.910;2023-03-03T12:06:12;97863.47;;;1.51;76.02
67517;BME280;54359;59.124;37.910;2023-03-03T12:11:54;97858.25;;;1.38;76.44
67517;BME280;54359;59.124;37.910;2023-03-03T12:14:53;97859.16;;;1.45;75.86
67517;BME280;54359;59.124;37.910;2023-03-03T12:17:53;97849.03;;;1.45;76.13
67517;BME280;54359;59.124;37.910;2023-03-03T12:28:41;97863.44;;;1.48;76.52
67517;BME280;54359;59.124;37.910;2023-03-03T12:34:40;97862.41;;;1.33;75.95
67517;BME280;54359;59.124;37.910;2023-03-03T12:48:46;97866.38;;;1.13;75.88
67517;BME280;54359;59.124;37.910;2023-03-03T12:54:24;97861.34;;;1.17;76.64
67517;BME280;54359;59.124;37.910;2023-03-03T12:57:03;97861.41;;;1.22;76.37
67517;BME280;54359;59.124;37.910;2023-03-03T13:02:50;97860.66;;;1.31;76.11
67517;BME280;54359;59.124;37.910;2023-03-03T13:10:53;97859.72;;;1.21;76.12
67517;BME280;54359;59.124;37.910;2023-03-03T13:16:11;97864.66;;;1.12;76.21
67517;BME280;54359;59.124;37.910;2023-03-03T13:24:21;97872.91;;;0.98;75.84
67517;BME280;54359;59.124;37.910;2023-03-03T13:26:58;97850.00;;;0.89;75.95
67517;BME280;54359;59.124;37.910;2023-03-03T13:29:39;97881.28;;;0.94;76.48
67517;BME280;54359;59.124;37.910;2023-03-03T13:32:19;97847.53;;;0.92;75.90
67517;BME280;54359;59.124;37.910;2023-03-03T13:35:08;97861.81;;;0.92;76.45
67517;BME280;54359;59.124;37.910;2023-03-03T13:37:46;97860.13;;;0.89;76.44
67517;BME280;54359;59.124;37.910;2023-03-03T13:40:21;97851.72;;;0.92;76.39
67517;BME280;54359;59.124;37.910;2023-03-03T13:42:57;97855.13;;;0.94;76.37
67517;BME280;54359;59.124;37.910;2023-03-03T13:48:47;97853.56;;;1.04;76.08
67517;BME280;54359;59.124;37.910;2023-03-03T13:54:33;97854.44;;;1.06;76.06
67517;BME280;54359;59.124;37.910;2023-03-03T13:57:09;97867.13;;;1.07;75.56
67517;BME280;54359;59.124;37.910;2023-03-03T13:59:54;97871.25;;;1.00;75.38
67517;BME280;54359;59.124;37.910;2023-03-03T14:05:50;97853.31;;;0.85;76.04
67517;BME280;54359;59.124;37.910;2023-03-03T14:11:10;97870.25;;;0.91;75.74
67517;BME280;54359;59.124;37.910;2023-03-03T14:16:37;97877.88;;;0.92;76.63
67517;BME280;54359;59.124;37.910;2023-03-03T14:22:03;97866.09;;;0.96;76.21
67517;BME280;54359;59.124;37.910;2023-03-03T14:25:01;97888.88;;;0.94;76.48
67517;BME280;54359;59.124;37.910;2023-03-03T14:27:58;97882.84;;;0.88;75.84
67517;BME280;54359;59.124;37.910;2023-03-03T14:30:41;97881.16;;;0.87;76.45
67517;BME280;54359;59.124;37.910;2023-03-03T14:38:35;97869.09;;;0.69;76.09
67517;BME280;54359;59.124;37.910;2023-03-03T14:41:21;97859.81;;;0.69;76.18
67517;BME280;54359;59.124;37.910;2023-03-03T14:44:29;97887.72;;;0.75;76.24
67517;BME280;54359;59.124;37.910;2023-03-03T14:49:34;97878.47;;;0.76;76.49
67517;BME280;54359;59.124;37.910;2023-03-03T14:52:20;97879.38;;;0.81;76.52
67517;BME280;54359;59.124;37.910;2023-03-03T14:54:59;97883.56;;;0.79;76.25
67517;BME280;54359;59.124;37.910;2023-03-03T14:57:47;97875.06;;;0.74;76.20
67517;BME280;54359;59.124;37.910;2023-03-03T15:02:42;97906.28;;;0.77;75.56
67517;BME280;54359;59.124;37.910;2023-03-03T15:05:23;97908.78;;;0.74;75.91
67517;BME280;54359;59.124;37.910;2023-03-03T15:07:55;97911.28;;;0.73;76.37
67517;BME280;54359;59.124;37.910;2023-03-03T15:10:29;97902.81;;;0.71;75.68
67517;BME280;54359;59.124;37.910;2023-03-03T15:12:55;97900.25;;;0.68;75.58
67517;BME280;54359;59.124;37.910;2023-03-03T15:15:23;97894.34;;;0.67;76.08
67517;BME280;54359;59.124;37.910;2023-03-03T15:17:58;97915.44;;;0.69;75.90
67517;BME280;54359;59.124;37.910;2023-03-03T15:34:14;97932.38;;;0.75;75.40
67517;BME280;54359;59.124;37.910;2023-03-03T15:39:47;97917.25;;;0.76;75.76
67517;BME280;54359;59.124;37.910;2023-03-03T15:42:41;97921.47;;;0.76;75.92
67517;BME280;54359;59.124;37.910;2023-03-03T15:45:26;97910.47;;;0.75;75.75
67517;BME280;54359;59.124;37.910;2023-03-03T15:51:16;97912.19;;;0.76;75.95
67517;BME280;54359;59.124;37.910;2023-03-03T15:54:06;97889.38;;;0.72;75.82
67517;BME280;54359;59.124;37.910;2023-03-03T16:02:24;97897.06;;;0.79;75.66
67517;BME280;54359;59.124;37.910;2023-03-03T16:05:02;97913.19;;;0.88;75.96
67517;BME280;54359;59.124;37.910;2023-03-03T16:07:44;97898.88;;;0.87;75.30
67517;BME280;54359;59.124;37.910;2023-03-03T16:10:28;97900.47;;;0.82;75.36
67517;BME280;54359;59.124;37.910;2023-03-03T16:13:22;97908.81;;;0.76;75.24
67517;BME280;54359;59.124;37.910;2023-03-03T16:16:24;97906.16;;;0.68;75.21
67517;BME280;54359;59.124;37.910;2023-03-03T16:25:17;97912.72;;;0.57;75.76
67517;BME280;54359;59.124;37.910;2023-03-03T16:30:31;97906.81;;;0.56;75.68
67517;BME280;54359;59.124;37.910;2023-03-03T16:33:21;97897.47;;;0.52;76.00
67517;BME280;54359;59.124;37.910;2023-03-03T16:35:58;97910.94;;;0.53;75.32
67517;BME280;54359;59.124;37.910;2023-03-03T16:38:34;97907.47;;;0.46;75.75
67517;BME280;54359;59.124;37.910;2023-03-03T16:41:04;97908.94;;;0.33;75.70
67517;BME280;54359;59.124;37.910;2023-03-03T16:46:37;97913.06;;;0.27;75.50
67517;BME280;54359;59.124;37.910;2023-03-03T16:52:13;97909.53;;;0.18;75.86
67517;BME280;54359;59.124;37.910;2023-03-03T16:54:46;97908.63;;;0.15;75.96
67517;BME280;54359;59.124;37.910;2023-03-03T16:57:39;97906.91;;;0.14;75.89
67517;BME280;54359;59.124;37.910;2023-03-03T17:03:12;97908.47;;;0.07;75.82
67517;BME280;54359;59.124;37.910;2023-03-03T17:05:52;97905.84;;;0.01;76.16
67517;BME280;54359;59.124;37.910;2023-03-03T17:08:57;97911.66;;;-0.03;76.22
67517;BME280;54359;59.124;37.910;2023-03-03T17:20:36;97901.41;;;-0.12;76.20
67517;BME280;54359;59.124;37.910;2023-03-03T17:23:15;97900.47;;;-0.16;76.11
67517;BME280;54359;59.124;37.910;2023-03-03T17:26:15;97896.25;;;-0.17;76.13
67517;BME280;54359;59.124;37.910;2023-03-03T17:36:49;97903.56;;;-0.31;76.30
67517;BME280;54359;59.124;37.910;2023-03-03T17:42:55;97909.38;;;-0.33;76.25
67517;BME280;54359;59.124;37.910;2023-03-03T17:45:24;97912.69;;;-0.36;76.06
67517;BME280;54359;59.124;37.910;2023-03-03T17:48:08;97903.44;;;-0.37;76.45